Weather observations for the past three days for
O'Neill / Baker Field
Imperial (Metric)
Date Time (cdt) Wind (mph) Vis. (mi.) Weather Sky Cond. Temperature (ºF) Relative Humidity Wind Chill (°F) Heat Index (°F) Pressure Precipitation (in)
Air Dwpt 6 hour altimeter (in) sea level (mb) 1 hr 3 hr 6 hr
Max. Min.
07 03:35 SW 9 10.00 Fair CLR 34.5 25.3 69% 28 29.85 0.0
07 03:15 SW 7 10.00 Fair CLR 34.2 23 64% 29 29.85 0.0
07 02:55 S 7 10.00 Fair CLR 34.9 22.1 60% 30 29.85 0.0
07 02:35 S 6 10.00 Fair CLR 34.9 22.3 60% 30 29.87 0.0
07 02:15 S 5 10.00 Fair CLR 36 21.9 57% 33 29.88 0.0
07 01:55 S 6 10.00 Fair CLR 37 22.1 55% 33 29.89 0.0
07 01:35 S 5 10.00 Fair CLR 37.8 21.7 52% 35 29.9 0.0
07 01:15 S 6 10.00 Fair CLR 38.3 22.1 52% 34 29.9 0.0
07 00:55 S 5 10.00 Fair CLR 37.6 22.3 56.3 35.8 54% 35 29.91 0.0
07 00:35 S 7 10.00 Fair CLR 37.2 23 56% 32 29.92 0.0
07 00:15 S 7 10.00 Fair CLR 36.7 23.2 58% 32 29.93 0.0
06 23:55 S 3 10.00 Fair CLR 36.3 23 59% 29.93 0.0
06 23:35 Calm 10.00 Fair CLR 37.2 24.3 60% 29.95 0.0
06 23:15 S 5 10.00 Fair CLR 37.8 24.4 59% 35 29.95 0.0
06 22:55 SE 5 10.00 Fair CLR 42.1 23.7 48% 40 29.95 0.0
06 22:15 Calm 10.00 Fair CLR 47.1 19.6 33% 29.96 0.0
06 21:55 Calm 10.00 Fair CLR 47.8 19.2 32% 29.97 0.0
06 21:35 Calm 10.00 Fair CLR 48.2 19.2 32% 29.97 0.0
06 21:15 Calm 10.00 Fair CLR 48.4 19.2 31% 29.97 0.0
06 20:55 Calm 10.00 Fair CLR 50.2 18.9 29% 29.97 0.0
06 20:35 Calm 10.00 Fair CLR 51.1 19 28% 29.96 0.0
06 20:15 NW 3 10.00 Partly Cloudy SCT090 52.5 18.7 26% 29.96 0.0
06 19:55 W 5 10.00 Mostly Cloudy BKN090 53.8 18.1 25% 29.97 0.0
06 19:35 W 8 10.00 Partly Cloudy SCT090 55 17.8 23% 29.97 0.0
06 19:15 W 6 G 9 10.00 Partly Cloudy SCT090 56.1 17.6 22% 29.97 0.0
06 18:55 NW 12 G 21 10.00 Partly Cloudy SCT080 55.8 16.5 58.1 51.4 21% 29.98 0.0
06 18:35 W 12 G 16 10.00 Mostly Cloudy BKN080 56.1 17.4 22% 29.98 0.0
06 17:55 W 8 10.00 Mostly Cloudy BKN080 55 18 23% 29.99 0.0
06 17:35 W 10 10.00 Mostly Cloudy BKN080 55.6 16.9 22% 30 0.0
06 17:15 W 13 G 18 10.00 Mostly Cloudy BKN080 57.2 18 21% 30 0.0
06 16:35 NW 8 10.00 Mostly Cloudy BKN080 55.2 17.6 23% 30.02 0.0
06 16:15 W 13 G 20 10.00 Mostly Cloudy BKN080 55.2 16.7 22% 30.03 0.0
06 15:55 SW 13 G 18 10.00 Mostly Cloudy BKN080 57.4 18.3 22% 30.03 0.0
06 15:35 W 8 10.00 Mostly Cloudy BKN080 53.6 17.2 24% 30.04 0.0
06 15:15 W 7 10.00 Overcast OVC080 56.8 19 23% 30.04 0.0
06 14:55 NW 5 G 21 10.00 Mostly Cloudy BKN080 53.1 17.1 24% 30.05 0.0
06 14:35 NW 12 G 22 10.00 Mostly Cloudy BKN070 54 18.5 25% 30.06 0.0
06 14:15 NW 6 G 17 10.00 Mostly Cloudy BKN070 52.7 17.8 25% 30.06 0.0
06 13:55 W 10 G 23 10.00 Mostly Cloudy BKN070 56.1 19 23% 30.07 0.0
06 13:35 W 17 G 26 10.00 Partly Cloudy SCT070 54.3 19.2 25% 30.07 0.0
06 13:15 NW 9 G 16 10.00 Partly Cloudy SCT070 52.9 18.7 26% 30.08 0.0
06 12:55 NW 12 G 17 10.00 Partly Cloudy SCT070 52.5 18.1 53.1 30.2 26% 30.09 0.0
06 12:35 W 14 G 22 10.00 Partly Cloudy SCT070 52.5 18.1 26% 30.09 0.0
06 12:15 NW 10 G 22 10.00 Partly Cloudy SCT070 51.6 17.6 26% 30.1 0.0
06 11:55 NW 12 G 21 10.00 Partly Cloudy SCT070 51.1 17.2 26% 30.1 0.0
06 11:35 N 15 G 21 10.00 Partly Cloudy SCT060 51.1 18.1 27% 30.11 0.0
06 11:15 N 8 G 22 10.00 Partly Cloudy SCT060 50.4 18 28% 30.1 0.0
06 10:55 N 12 G 20 10.00 Partly Cloudy SCT060 50.4 18.9 29% 30.1 0.0
06 10:35 NW 13 G 18 10.00 Partly Cloudy SCT060 49.1 18.9 30% 45 30.11 0.0
06 10:15 NW 13 G 20 10.00 Fair CLR 48 19.4 32% 43 30.1 0.0
06 09:55 NW 10 G 16 10.00 Fair CLR 47.5 20.3 34% 43 30.1 0.0
06 09:35 NW 9 10.00 Fair CLR 46.4 21.4 37% 42 30.11 0.0
06 09:15 NW 9 10.00 Fair CLR 45.1 21.6 39% 41 30.11 0.0
06 08:55 NW 8 10.00 Fair CLR 44.4 23.4 43% 40 30.11 0.0
06 08:35 W 7 10.00 Fair CLR 42.1 24.3 49% 38 30.11 0.0
06 08:15 W 5 10.00 Fair CLR 40.1 24.4 54% 37 30.1 0.0
06 07:55 NW 7 10.00 Partly Cloudy SCT085 37.6 24.4 59% 33 30.1 0.0
06 07:35 W 7 10.00 Overcast OVC085 34.3 25.5 70% 29 30.1 0.0
06 06:55 Calm 10.00 Fair CLR 30.2 22.5 35.6 27.7 73% 30.08 0.0
06 06:35 W 7 10.00 Fair CLR 28.4 22.1 77% 22 30.07 0.0
06 06:15 W 6 10.00 Fair CLR 29.3 21.9 74% 24 30.06 0.0
06 05:55 W 6 10.00 Fair CLR 30.2 22.5 73% 25 30.05 0.0
06 05:35 W 5 10.00 Fair CLR 29.8 22.1 73% 26 30.05 0.0
06 05:15 W 6 10.00 Fair CLR 29.3 22.3 75% 24 30.05 0.0
06 04:55 W 5 10.00 Fair CLR 30.9 22.3 70% 27 30.04 0.0
06 04:35 W 3 10.00 Partly Cloudy SCT100 31.8 23 70% 30.04 0.0
06 04:15 Calm 10.00 Mostly Cloudy BKN100 32.7 22.8 67% 30.04 0.0
06 03:55 Calm 10.00 Overcast OVC100 33.4 23.4 67% 30.04 0.0
06 03:35 W 3 10.00 Overcast OVC100 33.1 23 66% 30.04 0.0
06 03:15 W 3 10.00 Overcast OVC100 32.2 22.3 67% 30.04 0.0
06 02:55 NW 3 10.00 Overcast OVC100 33.3 21.2 61% 30.04 0.0
06 02:35 W 3 10.00 Mostly Cloudy BKN100 33.1 21.2 62% 30.04 0.0
06 02:15 NW 3 10.00 Partly Cloudy SCT100 33.4 21.6 62% 30.04 0.0
06 01:55 Calm 10.00 Fair CLR 34.3 21.4 59% 30.04 0.0
06 01:35 Calm 10.00 Fair CLR 34.5 21.9 60% 30.04 0.0
06 01:15 Calm 10.00 Fair CLR 33.3 22.1 64% 30.04 0.0
06 00:55 Calm 10.00 Fair CLR 35.8 21 50.2 35.6 55% 30.03 0.0
06 00:35 Calm 10.00 Fair CLR 36.3 20.3 52% 30.02 0.0
06 00:15 Calm 10.00 Fair CLR 37.6 21.2 52% 30.02 0.0
05 23:55 NW 3 10.00 Fair CLR 36.9 22.1 55% 30.01 0.0
05 23:35 N 3 10.00 Fair CLR 38.7 21.2 50% 30 0.0
05 23:15 Calm 10.00 Fair CLR 38.7 21.9 51% 30 0.0
05 22:55 N 3 10.00 Fair CLR 39.7 21.7 49% 30.01 0.0
05 22:35 N 5 10.00 Fair CLR 40.6 21.2 46% 38 30 0.0
05 22:15 N 7 10.00 Fair CLR 41.9 20.8 43% 38 30 0.0
05 21:55 N 6 10.00 Fair CLR 41.2 22.1 47% 38 30 0.0
05 21:35 N 5 10.00 Fair CLR 43 21 42% 41 29.99 0.0
05 21:15 N 5 10.00 Fair CLR 43.7 20.8 40% 42 29.98 0.0
05 20:35 N 8 10.00 Fair CLR 45.5 20.3 37% 42 29.96 0.0
05 20:15 N 9 10.00 Fair CLR 47.3 18.9 32% 43 29.96 0.0
05 19:55 N 10 G 18 10.00 Fair CLR 47.7 18.7 32% 44 29.96 0.0
05 19:35 N 12 10.00 Fair CLR 48.2 19 31% 44 29.95 0.0
05 19:15 N 14 10.00 Fair CLR 49.1 18 29% 44 29.95 0.0
05 18:55 NW 15 G 21 10.00 Fair CLR 50 18.3 53.6 49.5 28% 45 29.95 0.0
05 18:35 NW 15 G 21 10.00 Fair CLR 50.2 17.6 27% 29.95 0.0
05 18:15 N 17 10.00 Fair CLR 50.2 18 28% 29.94 0.0
05 17:55 N 17 G 25 10.00 Partly Cloudy SCT070 50.9 18.5 28% 29.94 0.0
05 17:35 N 14 G 25 10.00 Fair CLR 51.4 19.6 28% 29.93 0.0
05 17:15 NW 16 G 26 10.00 Partly Cloudy SCT075 52 19.9 28% 29.94 0.0
05 16:55 NW 15 G 25 10.00 Mostly Cloudy BKN075 52.5 19.6 27% 29.94 0.0
05 16:35 NW 20 G 26 10.00 Mostly Cloudy BKN075 53.2 19.6 27% 29.95 0.0
05 16:15 NW 15 G 26 10.00 Overcast OVC075 52.3 19.6 28% 29.95 0.0
05 15:55 NW 15 G 22 10.00 Overcast OVC075 51.8 19.8 28% 29.96 0.0
05 15:35 NW 16 G 22 10.00 Mostly Cloudy BKN065 51.3 19.6 29% 29.96 0.0
05 15:15 NW 15 G 25 10.00 Partly Cloudy SCT065 51.8 19.4 28% 29.97 0.0
05 14:55 NW 18 G 26 10.00 Mostly Cloudy BKN065 52.7 20.5 28% 29.97 0.0
05 14:35 NW 18 G 28 10.00 Mostly Cloudy BKN065 52 20.5 29% 29.97 0.0
05 14:15 NW 16 G 24 10.00 Mostly Cloudy BKN060 50.7 20.8 31% 29.97 0.0
05 13:55 NW 15 G 18 10.00 Mostly Cloudy BKN060 50.5 21.6 32% 29.97 0.0
05 13:35 N 18 G 22 10.00 Partly Cloudy SCT060 50.2 22.3 33% 29.98 0.0
05 13:15 N 14 G 20 10.00 Partly Cloudy SCT060 50.2 22.6 34% 29.98 0.0
05 12:55 N 14 G 20 10.00 Partly Cloudy SCT060 49.6 22.1 51.1 39.4 34% 45 29.98 0.0
05 12:35 NW 10 10.00 Mostly Cloudy BKN060 48.9 22.8 36% 45 29.98 0.0
05 11:55 N 10 10.00 Partly Cloudy SCT050 SCT070 48.6 23.5 37% 45 29.99 0.0
05 11:35 NW 8 10.00 Fair CLR 47.3 23.4 39% 44 29.99 0.0
05 11:15 N 10 G 20 10.00 Fair CLR 47.7 24.3 40% 44 29.99 0.0
05 10:55 N 13 G 18 10.00 Fair CLR 46.9 23.4 39% 42 29.98 0.0
05 10:35 N 9 10.00 Fair CLR 45.7 23 41% 42 29.98 0.0
05 10:15 N 12 G 17 10.00 Partly Cloudy SCT070 46.8 23.5 40% 42 29.97 0.0
05 09:55 N 12 10.00 Partly Cloudy SCT090 45.5 25.5 46% 40 29.97 0.0
05 09:35 N 13 10.00 Mostly Cloudy BKN090 44.1 25.9 49% 38 29.97 0.0
05 09:15 N 13 10.00 Fair CLR 44.2 27.3 52% 39 29.96 0.0
05 08:55 N 10 10.00 Fair CLR 43.2 27.1 53% 38 29.95 0.0
05 08:35 N 9 10.00 Fair CLR 42.3 30 62% 37 29.95 0.0
05 08:15 N 8 10.00 Fair CLR 41.5 30.9 66% 37 29.93 0.0
05 07:35 NW 6 10.00 Partly Cloudy SCT060 40.1 31.1 70% 37 29.92 0.0
05 07:15 NW 6 10.00 Partly Cloudy SCT070 39.6 31.1 72% 36 29.91 0.0
05 06:55 N 6 10.00 Partly Cloudy SCT070 SCT120 39.6 31.1 44.4 37.9 72% 36 29.9 0.0
05 06:15 NW 5 10.00 Partly Cloudy SCT070 39.2 30.7 72% 36 29.89 0.0
05 05:55 NW 5 10.00 Mostly Cloudy BKN070 39 30.2 71% 36 29.89 0.0
05 05:35 W 3 10.00 Partly Cloudy SCT070 38.7 30.7 73% 29.89 0.0
05 05:15 W 5 10.00 Fair CLR 38.8 30.6 72% 36 29.89 0.0
05 04:55 W 5 10.00 Fair CLR 39.6 30.9 71% 37 29.88 0.0
05 04:35 W 3 10.00 Fair CLR 39.7 30 68% 29.88 0.0
05 04:15 NW 5 10.00 Fair CLR 38.7 30.2 72% 36 29.88 0.0
05 03:55 Calm 10.00 Fair CLR 41.4 29.8 64% 29.87 0.0
05 03:35 Calm 10.00 Fair CLR 40.1 30.6 69% 29.87 0.0
05 03:15 N 6 10.00 Fair CLR 39.9 31.6 72% 36 29.87 0.0
05 02:55 N 3 10.00 Fair CLR 41 31.1 68% 29.87 0.0
05 02:35 N 6 10.00 Fair CLR 41 30.9 67% 38 29.87 0.0
05 02:15 N 6 10.00 Fair CLR 40.3 31.1 70% 37 29.86 0.0
05 01:55 N 6 10.00 Fair CLR 40.6 31.1 69% 37 29.86 0.0
05 01:35 N 6 10.00 Fair CLR 41.4 30.2 65% 38 29.85 0.0
05 01:15 NW 7 10.00 Fair CLR 43 30.2 61% 39 29.85 0.0
05 00:55 NW 6 10.00 Fair CLR 44.8 29.8 54.3 44.8 56% 42 29.84 0.0
05 00:35 NW 7 10.00 Fair CLR 45.3 30.4 56% 42 29.83 0.0
05 00:15 NW 5 10.00 Fair CLR 47.5 29.7 50% 46 29.84 0.0
04 23:55 NW 6 10.00 Fair CLR 48.4 29.8 49% 46 29.84 0.0
04 23:35 NW 6 10.00 Fair CLR 49.3 29.8 47% 47 29.85 0.0
04 23:15 NW 6 10.00 Fair CLR 49.5 30.4 48% 48 29.85 0.0
04 22:55 W 5 10.00 Fair CLR 48.6 30.9 51% 47 29.85 0.0
04 22:35 W 5 10.00 Fair CLR 48.6 30.6 50% 47 29.85 0.0
04 22:15 W 3 10.00 Fair CLR 50 30.7 48% 29.84 0.0
04 21:55 Calm 10.00 Partly Cloudy SCT120 50.4 30.9 47% 29.84 0.0
04 21:35 NW 3 10.00 Mostly Cloudy BKN110 50.4 31.6 49% 29.84 0.0
04 21:15 N 3 10.00 Partly Cloudy SCT110 51.3 30.4 45% 29.83 0.0
04 20:55 N 7 10.00 Mostly Cloudy BKN110 52.3 29.5 42% 29.82 0.0
04 20:35 N 8 10.00 Partly Cloudy SCT110 53.1 28.9 40% 29.81 0.0
04 20:15 N 10 10.00 Mostly Cloudy BKN100 BKN120 53.8 28.8 38% 29.81 0.0
04 19:55 N 8 10.00 Overcast SCT070 OVC090 54 31.6 43% 29.8 0.0
04 19:35 NW 8 10.00 Overcast SCT055 BKN080 OVC100 54 31.6 43% 29.81 0.0
04 19:15 NW 9 10.00 Overcast OVC065 54.1 30.6 41% 29.8 0.0
04 18:55 NW 10 G 17 10.00 Overcast SCT050 BKN060 OVC075 54.1 31.3 66.9 54.1 42% 29.81 0.0
04 18:35 N 18 G 23 10.00 Overcast SCT075 OVC090 55.6 29.8 37% 29.81 0.0
04 18:15 N 21 G 24 10.00 Overcast and Breezy OVC090 58.1 30.9 36% 29.8 0.0
04 17:55 N 16 G 23 10.00 Overcast SCT050 OVC090 57.6 34.5 42% 29.8 0.0
04 17:35 NW 17 G 26 10.00 Overcast OVC080 58.3 33.4 39% 29.8 0.0
04 17:15 N 17 G 26 10.00 Mostly Cloudy BKN080 60.4 32.7 35% 29.78 0.0
04 16:55 N 17 G 24 10.00 Partly Cloudy SCT065 SCT080 60.4 32 34% 29.77 0.0
04 16:35 N 18 G 23 10.00 Mostly Cloudy SCT065 BKN080 BKN120 57.7 34.2 41% 29.77 0.0
04 16:15 N 21 G 30 10.00 Mostly Cloudy and Breezy SCT065 BKN080 BKN110 58.5 33.1 38% 29.77 0.0
04 15:55 N 18 G 28 10.00 Mostly Cloudy SCT065 BKN100 BKN120 61.3 32 33% 29.77 0.0
04 15:35 NW 23 G 30 10.00 Mostly Cloudy and Breezy SCT065 SCT090 BKN110 61.9 32 33% 29.76 0.0
04 15:15 N 23 G 35 10.00 Partly Cloudy and Breezy SCT065 66 34.2 31% 29.76 0.0
04 14:55 NW 21 G 29 10.00 Partly Cloudy and Breezy SCT065 66.7 34.5 30% 29.76 0.0
04 14:35 NW 22 G 29 10.00 Partly Cloudy and Breezy SCT065 65.5 34.3 32% 29.75 0.0
04 14:15 N 12 G 29 10.00 Fair CLR 65.8 33.8 30% 29.74 0.0
04 13:55 N 17 G 29 10.00 Fair CLR 65.7 33.6 30% 29.74 0.0
04 13:35 N 15 G 23 10.00 Fair CLR 65.7 34.7 32% 29.74 0.0
04 13:15 N 20 G 26 10.00 Fair CLR 65.1 34.2 32% 29.74 0.0
04 12:55 NW 20 G 29 10.00 Fair CLR 65.5 33.4 65.7 47.5 30% 29.74 0.0
04 12:35 N 21 G 29 10.00 Fair and Breezy CLR 65.1 33.3 31% 29.74 0.0
04 12:15 N 18 G 25 10.00 Fair CLR 64.4 32.7 31% 29.74 0.0
04 11:55 N 21 G 30 10.00 Fair and Breezy CLR 63.9 32.2 31% 29.74 0.0
04 11:35 N 20 G 25 10.00 Fair CLR 63.3 31.6 31% 29.74 0.0
04 11:15 N 15 G 25 10.00 Fair CLR 63.1 32.9 32% 29.72 0.0
04 10:55 NE 18 G 23 10.00 Fair CLR 61.9 33.3 34% 29.72 0.0
04 10:35 N 22 G 25 10.00 Fair and Breezy CLR 61.2 34.9 38% 29.71 0.0
04 10:15 N 20 G 24 10.00 Fair CLR 60.3 37.6 43% 29.7 0.0
04 09:55 N 21 10.00 Fair and Breezy CLR 59.4 40.6 50% 29.69 0.0
04 09:35 N 20 G 26 10.00 Fair CLR 59.2 42.1 53% 29.69 0.0
04 09:15 N 21 10.00 Fair and Breezy CLR 59.5 41.7 52% 29.67 0.0
04 08:55 NW 17 G 25 10.00 Fair CLR 59 41.7 53% 29.66 0.0
04 08:35 NW 20 G 24 10.00 Fair CLR 58.6 40.8 52% 29.64 0.0
04 08:15 NW 9 10.00 Fair CLR 56.3 43 61% 29.64 0.0
04 07:55 W 10 10.00 Fair CLR 54.3 43 66% 29.62 0.0
04 07:35 W 10 10.00 Fair CLR 51.8 42.4 71% 29.62 0.0
04 07:15 W 9 10.00 Fair CLR 48.7 41.9 77% 45 29.62 0.0
04 06:55 SW 10 10.00 Fair CLR 47.1 41.4 50.9 43.9 80% 43 29.62 0.0
04 06:35 W 9 10.00 Fair CLR 46.4 41 82% 42 29.63 0.0
04 06:15 W 8 10.00 Fair CLR 46.4 41 82% 43 29.63 0.0
04 05:55 SW 10 10.00 Fair CLR 47.5 41.4 79% 43 29.63 0.0
04 05:35 W 8 10.00 Fair CLR 47.8 41.5 79% 45 29.63 0.0
04 05:15 SW 12 10.00 Fair CLR 48.6 41.5 77% 44 29.64 0.0
04 04:55 SW 7 10.00 Fair CLR 45.3 39.4 80% 42 29.64 0.0
04 04:35 SW 9 10.00 Fair CLR 46.4 38.7 75% 42 29.64 0.0
04 04:15 SW 8 10.00 Fair CLR 47.7 39 72% 44 29.65 0.0
Date Time (cdt) Wind (mph) Vis. (mi.) Weather Sky Cond. Air Dwpt Max. Min. Relative Humidity Wind Chill (°F) Heat Index (°F) altimeter (in) sea level (mb) 1 hr 3 hr 6 hr
6 hour
Temperature (ºF) Pressure Precipitation (in)